Archival Weather

Chicago O'Hare International

Chicago, Illinois (KORD)

Report from: Thursday, December 29, 2022 1:51 AM CST
Current time: Friday, June 21, 2024 3:07 AM CDT

Current weather – Weather history – Daily summaries
Weather forecast

Temperature6.7°C (44.1°F)
Wind chill3.2°C (37.7°F)
Dew point2.8°C (37.0°F)
Winds 11 kts (5.7 m/s, 12.7 mph) South (190°)
Wind gusts 23 kts (11.8 m/s, 26.5 mph)
Visibility10 mi. (16.1 km)
Clouds Scattered clouds 25,000 ft. (7,620 m)
Altimeter29.77 in.Hg (1008 mB)
Relative humidity76 %
Density altitude-720 ft. (-219 m)
Sea-level pressure100.8 kPa (1008 mB, 29.78 in.Hg)
Remarks Automated weather observing station with precipitation discriminator
Flight conditions Visual Meteorological Conditions
Raw dataKORD 290751Z 19011G23KT 10SM SCT250 07/03 A2977 RMK AO2 SLP083 T00670028
An error has occurred. This application may no longer respond until reloaded. Reload 🗙